Flight Track Log - Related Links

Times and Time Zones

All times are in EDT time to prevent confusion due to time zone crossing. See the N709UW flight status page for this flight to view local times or setup timezone preferences in your user account.

Time Position Orientation Groundspeed Altitude Reporting Facility
EDT Latitude Longitude Course Direction KTS MPH feet Rate Location/Type
Tue 09:34:16 AM 35.1886 -80.9358 72° East 161 185 1,800  Level Atlanta Center
Tue 09:34:59 AM 35.1511 -80.9294 172° South 179 206 3,000 1,922 Climbing Atlanta Center
Tue 09:35:59 AM 35.1039 -80.8781 138° Southeast 251 289 5,100 2,471 Climbing Atlanta Center
Tue 09:36:00 AM 35.1000 -80.6345 90° East  Level FlightAware Approximate
Tue 09:36:41 AM 35.0961 -80.8200 99° East 279 321 7,200  Level Atlanta Center
Tue 09:37:00 AM 35.1916 -80.5723 29° Northeast  Level FlightAware Approximate
Tue 09:37:00 AM 35.1078 -80.7942 61° Northeast 286 329 7,800  Level Atlanta Center
Tue 09:37:41 AM 35.1378 -80.7369 57° Northeast 337 388 8,200 1,604 Climbing Atlanta Center
Tue 09:38:00 AM 35.2826 -80.5077 30° Northeast  Level FlightAware Approximate
Tue 09:38:41 AM 35.1811 -80.6514 58° Northeast 310 357 10,500  Level Atlanta Center
Tue 09:39:00 AM 35.3443 -80.4252 72° East  Level FlightAware Approximate
Tue 09:39:41 AM 35.2325 -80.5503 58° Northeast 317 365 13,000  Level Atlanta Center
Tue 09:40:41 AM 35.2839 -80.4436 59° Northeast 346 398 15,400 1,895 Climbing Atlanta Center
Tue 09:43:10 AM 35.4239 -80.1672 58° Northeast 402 463 19,600 1,837 Climbing Washington Center
Tue 09:44:10 AM 35.4672 -80.0117 71° East 418 481 21,800 1,916 Climbing Washington Center
Tue 09:45:09 AM 35.5017 -79.8656 74° East 429 494 23,400 1,664 Climbing Washington Center
Tue 09:46:09 AM 35.5425 -79.7147 72° East 442 509 25,100 1,450 Climbing Washington Center
Tue 09:47:09 AM 35.5808 -79.5736 71° East 465 535 26,300 1,450 Climbing Washington Center
Tue 09:48:09 AM 35.6258 -79.4047 72° East 472 543 28,000 1,650 Climbing Washington Center
Tue 09:49:09 AM 35.6906 -79.2669 60° Northeast 463 533 29,600 1,500 Climbing Washington Center
Tue 09:50:09 AM 35.7839 -79.1536 45° Northeast 463 533 31,000 694 Climbing Washington Center
Tue 09:51:10 AM 35.8906 -79.0739 31° Northeast 448 516 31,000  Level Washington Center
Tue 09:52:10 AM 35.9994 -78.9911 32° Northeast 448 516 31,000  Level Washington Center
Tue 09:53:10 AM 36.1058 -78.9136 30° Northeast 448 516 31,000  Level Washington Center
Tue 09:54:10 AM 36.2125 -78.8331 31° Northeast 448 516 31,000  Level Washington Center
Tue 09:55:09 AM 36.3208 -78.7525 31° Northeast 448 516 31,000  Level Washington Center
Tue 09:56:10 AM 36.4272 -78.6717 31° Northeast 448 516 31,000  Level Washington Center
Tue 09:57:10 AM 36.5336 -78.5958 30° Northeast 443 510 31,000  Level Washington Center
Tue 09:58:10 AM 36.6422 -78.5119 32° Northeast 443 510 31,000  Level Washington Center
Tue 09:59:10 AM 36.7483 -78.4278 32° Northeast 443 510 31,000  Level Washington Center
Tue 10:00:10 AM 36.8567 -78.3486 30° Northeast 443 510 31,000  Level Washington Center
Tue 10:01:10 AM 36.9628 -78.2642 32° Northeast 448 516 31,000  Level Washington Center
Tue 10:02:09 AM 37.0606 -78.1894 31° Northeast 459 528 31,000  Level Washington Center
Tue 10:03:09 AM 37.1772 -78.0994 32° Northeast 453 521 31,000  Level Washington Center
Tue 10:04:09 AM 37.2853 -78.0194 30° Northeast 453 521 31,000  Level Washington Center
Tue 10:05:09 AM 37.3911 -77.9339 33° Northeast 453 521 31,000  Level Washington Center
Tue 10:06:09 AM 37.4969 -77.8533 31° Northeast 448 516 31,000  Level Washington Center
Tue 10:07:10 AM 37.6008 -77.7622 35° Northeast 448 516 31,000  Level Washington Center
Tue 10:08:09 AM 37.7047 -77.6706 35° Northeast 448 516 31,000  Level Washington Center
Tue 10:09:10 AM 37.8064 -77.5789 35° Northeast 448 516 31,000  Level Washington Center
Tue 10:10:10 AM 37.9061 -77.4842 37° Northeast 453 521 31,000  Level Washington Center
Tue 10:11:09 AM 38.0097 -77.3917 35° Northeast 453 521 31,000  Level Washington Center
Tue 10:12:09 AM 38.1111 -77.2939 37° Northeast 461 531 31,000  Level Washington Center
Tue 10:13:09 AM 38.2042 -77.2089 36° Northeast 452 520 31,000  Level Washington Center
Tue 10:14:09 AM 38.3158 -77.1108 35° Northeast 452 520 31,000  Level Washington Center
Tue 10:15:10 AM 38.4150 -77.0119 38° Northeast 452 520 31,000  Level Washington Center
Tue 10:16:10 AM 38.5183 -76.9183 35° Northeast 452 520 31,000 -1,109 Level Washington Center
Tue 10:17:09 AM 38.6172 -76.8244 37° Northeast 452 520 28,800 -3,328 Descending Washington Center
Tue 10:18:09 AM 38.7100 -76.7117 43° Northeast 457 526 24,400 -3,025 Descending Washington Center
Tue 10:19:10 AM 38.7447 -76.5525 74° East 447 514 22,700 -2,000 Descending Washington Center
Tue 10:20:09 AM 38.7750 -76.4039 75° East 432 497 20,400 -2,200 Descending Washington Center
Tue 10:21:10 AM 38.8053 -76.2603 75° East 432 497 18,300 -2,150 Descending Washington Center
Tue 10:22:09 AM 38.8328 -76.1381 74° East 406 467 16,100 -1,664 Descending Washington Center
Tue 10:23:09 AM 38.8606 -76.0022 75° East 394 453 15,000 -1,041 Descending Washington Center
Tue 10:24:10 AM 38.8900 -75.8769 73° East 377 434 14,000 -940 Descending Washington Center
Tue 10:25:55 AM 39.0136 -75.7233 44° Northeast 348 400 12,400 -912 Descending FAA TRACON SMA TRACON (SMA)
Tue 10:26:15 AM 39.0453 -75.6947 35° Northeast 347 399 12,100 -750 Descending FAA TRACON SMA TRACON (SMA)
Tue 10:26:35 AM 39.0714 -75.6794 24° Northeast 340 391 11,900 -750 Descending FAA TRACON SMA TRACON (SMA)
Tue 10:26:55 AM 39.1000 -75.6756 North 338 389 11,600 -900 Descending FAA TRACON SMA TRACON (SMA)
Tue 10:27:15 AM 39.1344 -75.6714 North 336 387 11,300 -750 Descending FAA TRACON SMA TRACON (SMA)
Tue 10:27:35 AM 39.1639 -75.6669 North 338 389 11,100 -750 Descending FAA TRACON SMA TRACON (SMA)
Tue 10:27:55 AM 39.1933 -75.6650 North 336 387 10,800 -900 Descending FAA TRACON SMA TRACON (SMA)
Tue 10:28:15 AM 39.2286 -75.6608 North 330 380 10,500 -750 Descending FAA TRACON SMA TRACON (SMA)
Tue 10:28:35 AM 39.2544 -75.6578 North 304 350 10,300 -750 Descending FAA TRACON SMA TRACON (SMA)
Tue 10:28:55 AM 39.2853 -75.6522 North 297 342 10,000 -600 Descending FAA TRACON SMA TRACON (SMA)
Tue 10:29:15 AM 39.3064 -75.6325 36° Northeast 304 350 9,900 -750 Descending FAA TRACON SMA TRACON (SMA)
Tue 10:29:35 AM 39.3281 -75.6158 31° Northeast 291 335 9,500 -1,463 Descending FAA TRACON SMA TRACON (SMA)
Tue 10:29:56 AM 39.3489 -75.5978 34° Northeast 291 335 8,900 -2,341 Descending FAA TRACON SMA TRACON (SMA)
Tue 10:30:16 AM 39.3758 -75.5747 33° Northeast 298 343 7,900 -2,154 Descending FAA TRACON SMA TRACON (SMA)
Tue 10:30:35 AM 39.3942 -75.5542 41° Northeast 300 345 7,500 -1,200 Descending FAA TRACON SMA TRACON (SMA)
Tue 10:30:56 AM 39.4161 -75.5206 50° Northeast 296 341 7,100 -732 Descending FAA TRACON SMA TRACON (SMA)
Tue 10:31:16 AM 39.4333 -75.4961 48° Northeast 298 343 7,000 -150 Descending FAA TRACON SMA TRACON (SMA)
Tue 10:31:36 AM 39.4508 -75.4711 48° Northeast 301 346 7,000  Level FAA TRACON SMA TRACON (SMA)
Tue 10:31:56 AM 39.4719 -75.4400 49° Northeast 300 345 7,000  Level FAA TRACON SMA TRACON (SMA)
Tue 10:32:16 AM 39.4889 -75.4156 48° Northeast 298 343 7,000  Level FAA TRACON SMA TRACON (SMA)
Tue 10:32:36 AM 39.5119 -75.4019 24° Northeast 295 339 7,000 -750 Level FAA TRACON SMA TRACON (SMA)
Tue 10:32:56 AM 39.5431 -75.3936 12° North 296 341 6,500 -1,350 Descending FAA TRACON SMA TRACON (SMA)
Tue 10:33:16 AM 39.5675 -75.3878 10° North 293 337 6,100 -750 Descending FAA TRACON SMA TRACON (SMA)
Tue 10:33:36 AM 39.5908 -75.3817 11° North 292 336 6,000 -150 Descending FAA TRACON SMA TRACON (SMA)
Tue 10:33:56 AM 39.6206 -75.3742 11° North 264 304 6,000  Level FAA TRACON SMA TRACON (SMA)
Tue 10:34:16 AM 39.6414 -75.3694 10° North 246 283 6,000  Level FAA TRACON SMA TRACON (SMA)
Tue 10:34:36 AM 39.6608 -75.3736 351° North 229 264 6,000  Level FAA TRACON SMA TRACON (SMA)
Tue 10:34:56 AM 39.6839 -75.3822 344° North 222 255 6,000  Level FAA TRACON SMA TRACON (SMA)
Tue 10:35:16 AM 39.7022 -75.3892 344° North 222 255 6,000  Level FAA TRACON SMA TRACON (SMA)
Tue 10:35:36 AM 39.7161 -75.4033 322° Northwest 205 236 6,000  Level FAA TRACON SMA TRACON (SMA)
Tue 10:35:56 AM 39.7183 -75.4289 276° West 189 217 6,000 -150 Level FAA TRACON SMA TRACON (SMA)
Tue 10:36:16 AM 39.7161 -75.4503 262° West 188 216 5,900 -900 Descending FAA TRACON SMA TRACON (SMA)
Tue 10:36:36 AM 39.7144 -75.4703 264° West 184 212 5,400 -1,350 Descending FAA TRACON SMA TRACON (SMA)
Tue 10:36:56 AM 39.7122 -75.4958 264° West 186 214 5,000 -600 Descending FAA TRACON SMA TRACON (SMA)
Tue 10:37:16 AM 39.7108 -75.5158 265° West 179 206 5,000  Level FAA TRACON SMA TRACON (SMA)
Tue 10:37:36 AM 39.7097 -75.5342 266° West 172 198 5,000 -150 Level FAA TRACON SMA TRACON (SMA)
Tue 10:37:56 AM 39.7133 -75.5569 282° West 191 220 4,900 -600 Descending FAA TRACON SMA TRACON (SMA)
Tue 10:38:16 AM 39.7294 -75.5667 335° Northwest 203 234 4,600 -1,050 Descending FAA TRACON SMA TRACON (SMA)
Tue 10:38:36 AM 39.7469 -75.5692 354° North 210 242 4,200 -750 Descending FAA TRACON SMA TRACON (SMA)
Tue 10:38:56 AM 39.7642 -75.5714 354° North 201 231 4,100 -600 Descending FAA TRACON SMA TRACON (SMA)
Tue 10:39:36 AM 39.7981 -75.5506 25° Northeast 206 237 3,600 -900 Descending FAA TRACON SMA TRACON (SMA)
Tue 10:39:56 AM 39.8086 -75.5303 56° Northeast 205 236 3,200 -750 Descending FAA TRACON SMA TRACON (SMA)
Tue 10:40:16 AM 39.8142 -75.5047 74° East 192 221 3,100 -150 Descending FAA TRACON SMA TRACON (SMA)
Tue 10:40:36 AM 39.8189 -75.4842 73° East 194 223 3,100 -150 Level FAA TRACON SMA TRACON (SMA)
Tue 10:40:56 AM 39.8228 -75.4633 76° East 193 222 3,000 -750 Descending FAA TRACON SMA TRACON (SMA)
Tue 10:41:16 AM 39.8283 -75.4369 75° East 194 223 2,600 -1,050 Descending FAA TRACON SMA TRACON (SMA)
Tue 10:41:36 AM 39.8322 -75.4167 76° East 194 223 2,300 -900 Descending FAA TRACON SMA TRACON (SMA)

Login

Don't have an account? Register now (free) for customized features, flight alerts, and more!